sensor_id;sensor_type;location;lat;lon;timestamp;P1;durP1;ratioP1;P2;durP2;ratioP2
78750;SDS011;68070;50.954;11.060;2023-04-06T00:00:10;3.10;;;2.20;;
78750;SDS011;68070;50.954;11.060;2023-04-06T00:02:55;3.80;;;2.50;;
78750;SDS011;68070;50.954;11.060;2023-04-06T00:05:40;6.30;;;4.60;;
78750;SDS011;68070;50.954;11.060;2023-04-06T00:08:26;7.20;;;4.30;;
78750;SDS011;68070;50.954;11.060;2023-04-06T00:11:11;11.60;;;7.20;;
78750;SDS011;68070;50.954;11.060;2023-04-06T00:13:56;8.20;;;5.60;;
78750;SDS011;68070;50.954;11.060;2023-04-06T00:16:40;6.30;;;4.30;;
78750;SDS011;68070;50.954;11.060;2023-04-06T00:22:09;8.70;;;5.20;;
78750;SDS011;68070;50.954;11.060;2023-04-06T00:24:53;5.00;;;4.00;;
78750;SDS011;68070;50.954;11.060;2023-04-06T00:27:38;7.20;;;3.70;;
78750;SDS011;68070;50.954;11.060;2023-04-06T00:30:22;8.80;;;5.30;;
78750;SDS011;68070;50.954;11.060;2023-04-06T00:33:07;7.20;;;4.70;;
78750;SDS011;68070;50.954;11.060;2023-04-06T00:35:51;10.10;;;7.30;;
78750;SDS011;68070;50.954;11.060;2023-04-06T00:38:36;11.40;;;6.90;;
78750;SDS011;68070;50.954;11.060;2023-04-06T00:41:20;5.40;;;4.20;;
78750;SDS011;68070;50.954;11.060;2023-04-06T00:44:04;7.10;;;5.00;;
78750;SDS011;68070;50.954;11.060;2023-04-06T00:46:49;7.00;;;4.80;;
78750;SDS011;68070;50.954;11.060;2023-04-06T00:49:35;6.60;;;4.40;;
78750;SDS011;68070;50.954;11.060;2023-04-06T00:52:19;6.10;;;3.90;;
78750;SDS011;68070;50.954;11.060;2023-04-06T00:55:05;7.20;;;4.60;;
78750;SDS011;68070;50.954;11.060;2023-04-06T00:57:52;7.50;;;5.00;;
78750;SDS011;68070;50.954;11.060;2023-04-06T01:00:37;11.80;;;7.60;;
78750;SDS011;68070;50.954;11.060;2023-04-06T01:03:22;9.60;;;5.10;;
78750;SDS011;68070;50.954;11.060;2023-04-06T01:06:07;4.20;;;2.70;;
78750;SDS011;68070;50.954;11.060;2023-04-06T01:08:54;6.00;;;4.40;;
78750;SDS011;68070;50.954;11.060;2023-04-06T01:11:42;8.40;;;4.00;;
78750;SDS011;68070;50.954;11.060;2023-04-06T01:14:28;6.30;;;4.60;;
78750;SDS011;68070;50.954;11.060;2023-04-06T01:17:18;5.60;;;3.90;;
78750;SDS011;68070;50.954;11.060;2023-04-06T01:20:03;6.00;;;4.20;;
78750;SDS011;68070;50.954;11.060;2023-04-06T01:22:49;5.80;;;4.40;;
78750;SDS011;68070;50.954;11.060;2023-04-06T01:25:34;8.20;;;4.80;;
78750;SDS011;68070;50.954;11.060;2023-04-06T01:28:25;25.40;;;11.80;;
78750;SDS011;68070;50.954;11.060;2023-04-06T01:31:20;12.20;;;8.30;;
78750;SDS011;68070;50.954;11.060;2023-04-06T01:34:07;6.60;;;4.60;;
78750;SDS011;68070;50.954;11.060;2023-04-06T01:36:52;7.70;;;5.10;;
78750;SDS011;68070;50.954;11.060;2023-04-06T01:39:42;6.40;;;4.40;;
78750;SDS011;68070;50.954;11.060;2023-04-06T01:42:32;9.50;;;5.20;;
78750;SDS011;68070;50.954;11.060;2023-04-06T01:45:17;6.70;;;4.40;;
78750;SDS011;68070;50.954;11.060;2023-04-06T01:48:03;8.10;;;5.10;;
78750;SDS011;68070;50.954;11.060;2023-04-06T01:50:48;13.70;;;8.50;;
78750;SDS011;68070;50.954;11.060;2023-04-06T01:53:38;11.80;;;7.80;;
78750;SDS011;68070;50.954;11.060;2023-04-06T01:56:24;6.70;;;3.70;;
78750;SDS011;68070;50.954;11.060;2023-04-06T01:59:18;9.20;;;5.60;;
78750;SDS011;68070;50.954;11.060;2023-04-06T02:02:03;9.80;;;5.30;;
78750;SDS011;68070;50.954;11.060;2023-04-06T02:04:48;8.70;;;5.50;;
78750;SDS011;68070;50.954;11.060;2023-04-06T02:07:34;11.30;;;5.80;;
78750;SDS011;68070;50.954;11.060;2023-04-06T02:10:19;7.70;;;4.90;;
78750;SDS011;68070;50.954;11.060;2023-04-06T02:13:04;9.30;;;6.50;;
78750;SDS011;68070;50.954;11.060;2023-04-06T02:15:48;19.50;;;11.60;;
78750;SDS011;68070;50.954;11.060;2023-04-06T02:18:33;8.50;;;6.30;;
78750;SDS011;68070;50.954;11.060;2023-04-06T02:21:18;8.50;;;5.40;;
78750;SDS011;68070;50.954;11.060;2023-04-06T02:24:04;6.60;;;4.80;;
78750;SDS011;68070;50.954;11.060;2023-04-06T02:26:49;7.80;;;4.50;;
78750;SDS011;68070;50.954;11.060;2023-04-06T02:29:34;7.30;;;5.30;;
78750;SDS011;68070;50.954;11.060;2023-04-06T02:32:19;7.00;;;4.80;;
78750;SDS011;68070;50.954;11.060;2023-04-06T02:35:04;7.20;;;5.10;;
78750;SDS011;68070;50.954;11.060;2023-04-06T02:37:50;22.60;;;11.60;;
78750;SDS011;68070;50.954;11.060;2023-04-06T02:40:34;10.60;;;8.10;;
78750;SDS011;68070;50.954;11.060;2023-04-06T02:43:25;6.50;;;4.40;;
78750;SDS011;68070;50.954;11.060;2023-04-06T02:46:13;4.90;;;4.20;;
78750;SDS011;68070;50.954;11.060;2023-04-06T02:48:58;7.80;;;5.50;;
78750;SDS011;68070;50.954;11.060;2023-04-06T02:51:45;10.10;;;5.60;;
78750;SDS011;68070;50.954;11.060;2023-04-06T02:54:42;17.00;;;9.50;;
78750;SDS011;68070;50.954;11.060;2023-04-06T02:57:27;12.00;;;7.20;;
78750;SDS011;68070;50.954;11.060;2023-04-06T03:00:11;6.30;;;4.80;;
78750;SDS011;68070;50.954;11.060;2023-04-06T03:02:57;7.60;;;4.80;;
78750;SDS011;68070;50.954;11.060;2023-04-06T03:05:42;12.50;;;6.10;;
78750;SDS011;68070;50.954;11.060;2023-04-06T03:08:27;8.10;;;6.10;;
78750;SDS011;68070;50.954;11.060;2023-04-06T03:11:11;8.00;;;5.30;;
78750;SDS011;68070;50.954;11.060;2023-04-06T03:13:58;7.90;;;4.90;;
78750;SDS011;68070;50.954;11.060;2023-04-06T03:16:43;6.50;;;3.20;;
78750;SDS011;68070;50.954;11.060;2023-04-06T03:19:29;1.70;;;1.10;;
78750;SDS011;68070;50.954;11.060;2023-04-06T03:22:15;6.90;;;4.40;;
78750;SDS011;68070;50.954;11.060;2023-04-06T03:25:00;25.70;;;12.50;;
78750;SDS011;68070;50.954;11.060;2023-04-06T03:27:45;13.30;;;8.10;;
78750;SDS011;68070;50.954;11.060;2023-04-06T03:30:32;7.10;;;4.40;;
78750;SDS011;68070;50.954;11.060;2023-04-06T03:33:16;7.90;;;5.00;;
78750;SDS011;68070;50.954;11.060;2023-04-06T03:36:08;6.30;;;4.60;;
78750;SDS011;68070;50.954;11.060;2023-04-06T03:38:56;5.30;;;2.90;;
78750;SDS011;68070;50.954;11.060;2023-04-06T03:41:41;9.60;;;5.20;;
78750;SDS011;68070;50.954;11.060;2023-04-06T03:44:35;4.90;;;2.80;;
78750;SDS011;68070;50.954;11.060;2023-04-06T03:47:19;6.50;;;3.70;;
78750;SDS011;68070;50.954;11.060;2023-04-06T03:52:50;17.90;;;9.00;;
78750;SDS011;68070;50.954;11.060;2023-04-06T03:55:35;9.40;;;5.20;;
78750;SDS011;68070;50.954;11.060;2023-04-06T04:01:04;5.40;;;4.20;;
78750;SDS011;68070;50.954;11.060;2023-04-06T04:06:33;9.10;;;6.70;;
78750;SDS011;68070;50.954;11.060;2023-04-06T04:12:02;10.70;;;5.80;;
78750;SDS011;68070;50.954;11.060;2023-04-06T04:14:47;9.60;;;5.80;;
78750;SDS011;68070;50.954;11.060;2023-04-06T04:17:32;4.40;;;3.70;;
78750;SDS011;68070;50.954;11.060;2023-04-06T04:23:00;1.40;;;1.10;;
78750;SDS011;68070;50.954;11.060;2023-04-06T04:25:46;9.80;;;4.70;;
78750;SDS011;68070;50.954;11.060;2023-04-06T04:28:31;21.30;;;12.50;;
78750;SDS011;68070;50.954;11.060;2023-04-06T04:31:16;31.10;;;16.40;;
78750;SDS011;68070;50.954;11.060;2023-04-06T04:34:05;14.10;;;9.20;;
78750;SDS011;68070;50.954;11.060;2023-04-06T04:36:51;9.60;;;6.00;;
78750;SDS011;68070;50.954;11.060;2023-04-06T04:39:42;8.70;;;5.80;;
78750;SDS011;68070;50.954;11.060;2023-04-06T04:42:26;13.40;;;6.60;;
78750;SDS011;68070;50.954;11.060;2023-04-06T04:45:12;70.50;;;21.90;;
78750;SDS011;68070;50.954;11.060;2023-04-06T04:47:57;28.70;;;13.70;;
78750;SDS011;68070;50.954;11.060;2023-04-06T04:50:44;50.10;;;24.20;;
78750;SDS011;68070;50.954;11.060;2023-04-06T04:53:30;12.90;;;8.60;;
78750;SDS011;68070;50.954;11.060;2023-04-06T04:56:19;8.30;;;6.70;;
78750;SDS011;68070;50.954;11.060;2023-04-06T04:59:04;11.40;;;6.90;;
78750;SDS011;68070;50.954;11.060;2023-04-06T05:01:51;10.10;;;6.70;;
78750;SDS011;68070;50.954;11.060;2023-04-06T05:04:36;12.10;;;7.00;;
78750;SDS011;68070;50.954;11.060;2023-04-06T05:07:21;13.30;;;8.60;;
78750;SDS011;68070;50.954;11.060;2023-04-06T05:10:07;23.20;;;15.00;;
78750;SDS011;68070;50.954;11.060;2023-04-06T05:12:56;9.20;;;7.10;;
78750;SDS011;68070;50.954;11.060;2023-04-06T05:15:41;10.30;;;6.10;;
78750;SDS011;68070;50.954;11.060;2023-04-06T05:18:35;15.50;;;6.80;;
78750;SDS011;68070;50.954;11.060;2023-04-06T05:21:20;11.60;;;7.30;;
78750;SDS011;68070;50.954;11.060;2023-04-06T05:24:20;16.60;;;8.10;;
78750;SDS011;68070;50.954;11.060;2023-04-06T05:27:05;11.80;;;7.70;;
78750;SDS011;68070;50.954;11.060;2023-04-06T05:29:49;13.50;;;7.20;;
78750;SDS011;68070;50.954;11.060;2023-04-06T05:32:34;23.90;;;9.50;;
78750;SDS011;68070;50.954;11.060;2023-04-06T05:35:19;53.60;;;21.50;;
78750;SDS011;68070;50.954;11.060;2023-04-06T05:38:07;48.80;;;19.90;;
78750;SDS011;68070;50.954;11.060;2023-04-06T05:40:54;16.30;;;7.30;;
78750;SDS011;68070;50.954;11.060;2023-04-06T05:43:40;44.60;;;11.80;;
78750;SDS011;68070;50.954;11.060;2023-04-06T05:49:10;19.00;;;8.00;;
78750;SDS011;68070;50.954;11.060;2023-04-06T05:51:55;23.20;;;9.80;;
78750;SDS011;68070;50.954;11.060;2023-04-06T05:54:40;25.90;;;11.40;;
78750;SDS011;68070;50.954;11.060;2023-04-06T05:57:24;22.20;;;10.60;;
78750;SDS011;68070;50.954;11.060;2023-04-06T06:00:08;20.90;;;8.80;;
78750;SDS011;68070;50.954;11.060;2023-04-06T06:02:58;18.90;;;7.90;;
78750;SDS011;68070;50.954;11.060;2023-04-06T06:05:45;16.60;;;7.90;;
78750;SDS011;68070;50.954;11.060;2023-04-06T06:08:33;12.40;;;6.90;;
78750;SDS011;68070;50.954;11.060;2023-04-06T06:11:18;10.90;;;6.60;;
78750;SDS011;68070;50.954;11.060;2023-04-06T06:14:03;14.60;;;7.20;;
78750;SDS011;68070;50.954;11.060;2023-04-06T06:16:50;13.00;;;7.60;;
78750;SDS011;68070;50.954;11.060;2023-04-06T06:19:34;13.10;;;7.60;;
78750;SDS011;68070;50.954;11.060;2023-04-06T06:22:21;14.40;;;8.00;;
78750;SDS011;68070;50.954;11.060;2023-04-06T06:25:05;14.20;;;7.40;;
78750;SDS011;68070;50.954;11.060;2023-04-06T06:27:50;12.50;;;7.70;;
78750;SDS011;68070;50.954;11.060;2023-04-06T06:30:36;11.60;;;7.40;;
78750;SDS011;68070;50.954;11.060;2023-04-06T06:33:20;6.70;;;6.00;;
78750;SDS011;68070;50.954;11.060;2023-04-06T11:56:38;4.30;;;3.20;;
78750;SDS011;68070;50.954;11.060;2023-04-06T11:59:23;3.40;;;2.60;;
78750;SDS011;68070;50.954;11.060;2023-04-06T12:02:07;4.80;;;3.10;;
78750;SDS011;68070;50.954;11.060;2023-04-06T12:04:51;5.60;;;3.00;;
78750;SDS011;68070;50.954;11.060;2023-04-06T12:07:36;4.40;;;2.60;;
78750;SDS011;68070;50.954;11.060;2023-04-06T12:10:20;6.30;;;3.70;;
78750;SDS011;68070;50.954;11.060;2023-04-06T12:13:04;5.40;;;2.50;;
78750;SDS011;68070;50.954;11.060;2023-04-06T12:15:49;3.30;;;2.20;;
78750;SDS011;68070;50.954;11.060;2023-04-06T12:18:34;4.00;;;2.60;;
78750;SDS011;68070;50.954;11.060;2023-04-06T12:21:18;6.20;;;3.30;;
78750;SDS011;68070;50.954;11.060;2023-04-06T12:24:03;7.50;;;4.30;;
78750;SDS011;68070;50.954;11.060;2023-04-06T12:26:48;4.30;;;2.50;;
78750;SDS011;68070;50.954;11.060;2023-04-06T12:29:33;4.50;;;2.50;;
78750;SDS011;68070;50.954;11.060;2023-04-06T12:32:18;3.80;;;2.60;;
78750;SDS011;68070;50.954;11.060;2023-04-06T12:35:03;3.80;;;2.30;;
78750;SDS011;68070;50.954;11.060;2023-04-06T12:37:47;7.70;;;3.10;;
78750;SDS011;68070;50.954;11.060;2023-04-06T12:40:35;5.10;;;3.50;;
78750;SDS011;68070;50.954;11.060;2023-04-06T12:43:21;5.70;;;2.70;;
78750;SDS011;68070;50.954;11.060;2023-04-06T12:46:05;4.20;;;2.80;;
78750;SDS011;68070;50.954;11.060;2023-04-06T12:48:50;5.80;;;3.60;;
78750;SDS011;68070;50.954;11.060;2023-04-06T12:51:37;5.10;;;3.60;;
78750;SDS011;68070;50.954;11.060;2023-04-06T12:54:21;4.90;;;3.50;;
78750;SDS011;68070;50.954;11.060;2023-04-06T12:57:06;4.80;;;3.20;;
78750;SDS011;68070;50.954;11.060;2023-04-06T12:59:50;4.00;;;2.90;;
78750;SDS011;68070;50.954;11.060;2023-04-06T13:02:35;3.50;;;2.20;;
78750;SDS011;68070;50.954;11.060;2023-04-06T13:05:20;5.00;;;3.70;;
78750;SDS011;68070;50.954;11.060;2023-04-06T13:08:04;4.60;;;3.10;;
78750;SDS011;68070;50.954;11.060;2023-04-06T13:10:49;4.70;;;3.20;;
78750;SDS011;68070;50.954;11.060;2023-04-06T13:13:36;4.00;;;2.30;;
78750;SDS011;68070;50.954;11.060;2023-04-06T13:16:21;5.30;;;3.10;;
78750;SDS011;68070;50.954;11.060;2023-04-06T13:19:05;4.50;;;3.40;;
78750;SDS011;68070;50.954;11.060;2023-04-06T13:21:49;3.80;;;2.70;;
78750;SDS011;68070;50.954;11.060;2023-04-06T13:24:34;3.40;;;2.40;;
78750;SDS011;68070;50.954;11.060;2023-04-06T13:27:18;3.70;;;2.70;;
78750;SDS011;68070;50.954;11.060;2023-04-06T13:30:03;5.30;;;2.60;;
78750;SDS011;68070;50.954;11.060;2023-04-06T13:32:48;5.60;;;3.10;;
78750;SDS011;68070;50.954;11.060;2023-04-06T13:35:33;4.00;;;3.10;;
78750;SDS011;68070;50.954;11.060;2023-04-06T13:38:19;6.10;;;3.70;;
78750;SDS011;68070;50.954;11.060;2023-04-06T13:41:04;6.20;;;4.10;;
78750;SDS011;68070;50.954;11.060;2023-04-06T13:43:49;2.90;;;2.30;;
78750;SDS011;68070;50.954;11.060;2023-04-06T13:46:34;4.90;;;2.90;;
78750;SDS011;68070;50.954;11.060;2023-04-06T13:49:18;3.30;;;2.70;;
78750;SDS011;68070;50.954;11.060;2023-04-06T13:52:03;4.50;;;3.50;;
78750;SDS011;68070;50.954;11.060;2023-04-06T13:54:50;5.50;;;4.10;;
78750;SDS011;68070;50.954;11.060;2023-04-06T13:57:35;4.70;;;3.10;;
78750;SDS011;68070;50.954;11.060;2023-04-06T14:00:20;6.60;;;3.50;;
78750;SDS011;68070;50.954;11.060;2023-04-06T14:03:05;4.50;;;3.50;;
78750;SDS011;68070;50.954;11.060;2023-04-06T14:05:50;5.50;;;3.80;;
78750;SDS011;68070;50.954;11.060;2023-04-06T14:08:34;4.60;;;3.70;;
78750;SDS011;68070;50.954;11.060;2023-04-06T14:11:18;6.20;;;4.00;;
78750;SDS011;68070;50.954;11.060;2023-04-06T14:14:03;4.50;;;3.70;;
78750;SDS011;68070;50.954;11.060;2023-04-06T14:16:48;4.80;;;3.10;;
78750;SDS011;68070;50.954;11.060;2023-04-06T14:19:33;4.30;;;3.30;;
78750;SDS011;68070;50.954;11.060;2023-04-06T14:22:18;4.40;;;3.50;;
78750;SDS011;68070;50.954;11.060;2023-04-06T14:25:03;7.20;;;5.40;;
78750;SDS011;68070;50.954;11.060;2023-04-06T14:27:47;4.40;;;3.50;;
78750;SDS011;68070;50.954;11.060;2023-04-06T14:30:31;5.30;;;3.70;;
78750;SDS011;68070;50.954;11.060;2023-04-06T14:33:16;4.50;;;3.70;;
78750;SDS011;68070;50.954;11.060;2023-04-06T14:36:03;5.30;;;4.20;;
78750;SDS011;68070;50.954;11.060;2023-04-06T14:38:49;6.10;;;4.30;;
78750;SDS011;68070;50.954;11.060;2023-04-06T14:41:33;4.80;;;2.80;;
78750;SDS011;68070;50.954;11.060;2023-04-06T14:44:19;5.80;;;4.00;;
78750;SDS011;68070;50.954;11.060;2023-04-06T14:47:03;3.50;;;2.60;;
78750;SDS011;68070;50.954;11.060;2023-04-06T14:49:50;6.10;;;3.90;;
78750;SDS011;68070;50.954;11.060;2023-04-06T14:52:35;5.60;;;3.60;;
78750;SDS011;68070;50.954;11.060;2023-04-06T14:55:20;5.10;;;3.40;;
78750;SDS011;68070;50.954;11.060;2023-04-06T14:58:04;4.50;;;3.20;;
78750;SDS011;68070;50.954;11.060;2023-04-06T15:00:49;6.30;;;3.60;;
78750;SDS011;68070;50.954;11.060;2023-04-06T15:03:33;6.60;;;3.30;;
78750;SDS011;68070;50.954;11.060;2023-04-06T15:06:17;5.60;;;3.70;;
78750;SDS011;68070;50.954;11.060;2023-04-06T15:09:04;4.20;;;3.60;;
78750;SDS011;68070;50.954;11.060;2023-04-06T15:11:49;5.50;;;3.80;;
78750;SDS011;68070;50.954;11.060;2023-04-06T15:14:34;6.30;;;4.60;;
78750;SDS011;68070;50.954;11.060;2023-04-06T15:17:19;6.00;;;4.50;;
78750;SDS011;68070;50.954;11.060;2023-04-06T15:20:04;5.30;;;4.20;;
78750;SDS011;68070;50.954;11.060;2023-04-06T15:22:49;5.80;;;4.20;;
78750;SDS011;68070;50.954;11.060;2023-04-06T15:25:33;5.00;;;4.10;;
78750;SDS011;68070;50.954;11.060;2023-04-06T15:28:18;8.10;;;4.10;;
78750;SDS011;68070;50.954;11.060;2023-04-06T15:31:02;5.00;;;3.30;;
78750;SDS011;68070;50.954;11.060;2023-04-06T15:33:49;5.10;;;3.80;;
78750;SDS011;68070;50.954;11.060;2023-04-06T15:36:33;5.20;;;3.50;;
78750;SDS011;68070;50.954;11.060;2023-04-06T15:39:18;5.50;;;4.40;;
78750;SDS011;68070;50.954;11.060;2023-04-06T15:42:02;5.40;;;4.20;;
78750;SDS011;68070;50.954;11.060;2023-04-06T15:44:47;5.70;;;3.90;;
78750;SDS011;68070;50.954;11.060;2023-04-06T15:47:31;5.40;;;3.60;;
78750;SDS011;68070;50.954;11.060;2023-04-06T15:50:16;5.00;;;3.40;;
78750;SDS011;68070;50.954;11.060;2023-04-06T15:53:02;5.20;;;3.90;;
78750;SDS011;68070;50.954;11.060;2023-04-06T15:55:46;5.60;;;3.50;;
78750;SDS011;68070;50.954;11.060;2023-04-06T15:58:31;2.40;;;1.90;;
78750;SDS011;68070;50.954;11.060;2023-04-06T16:01:17;4.50;;;2.80;;
78750;SDS011;68070;50.954;11.060;2023-04-06T16:04:05;4.00;;;3.00;;
78750;SDS011;68070;50.954;11.060;2023-04-06T16:06:50;4.50;;;2.20;;
78750;SDS011;68070;50.954;11.060;2023-04-06T16:09:35;3.80;;;2.10;;
78750;SDS011;68070;50.954;11.060;2023-04-06T16:12:19;4.70;;;3.40;;
78750;SDS011;68070;50.954;11.060;2023-04-06T16:15:04;5.70;;;3.00;;
78750;SDS011;68070;50.954;11.060;2023-04-06T16:17:49;7.00;;;3.50;;
78750;SDS011;68070;50.954;11.060;2023-04-06T16:20:34;2.70;;;2.10;;
78750;SDS011;68070;50.954;11.060;2023-04-06T16:23:18;3.60;;;2.30;;
78750;SDS011;68070;50.954;11.060;2023-04-06T16:26:09;3.90;;;2.90;;
78750;SDS011;68070;50.954;11.060;2023-04-06T16:28:54;5.00;;;3.40;;
78750;SDS011;68070;50.954;11.060;2023-04-06T16:31:39;3.60;;;2.40;;
78750;SDS011;68070;50.954;11.060;2023-04-06T16:34:23;5.20;;;3.40;;
78750;SDS011;68070;50.954;11.060;2023-04-06T16:37:08;5.70;;;4.10;;
78750;SDS011;68070;50.954;11.060;2023-04-06T16:39:52;6.10;;;2.90;;
78750;SDS011;68070;50.954;11.060;2023-04-06T16:42:36;3.40;;;2.50;;
78750;SDS011;68070;50.954;11.060;2023-04-06T16:45:20;4.60;;;3.40;;
78750;SDS011;68070;50.954;11.060;2023-04-06T16:48:05;7.90;;;3.80;;
78750;SDS011;68070;50.954;11.060;2023-04-06T16:50:49;4.30;;;3.20;;
78750;SDS011;68070;50.954;11.060;2023-04-06T16:53:34;5.50;;;3.30;;
78750;SDS011;68070;50.954;11.060;2023-04-06T16:56:20;4.40;;;2.90;;
78750;SDS011;68070;50.954;11.060;2023-04-06T16:59:05;5.60;;;3.50;;
78750;SDS011;68070;50.954;11.060;2023-04-06T17:01:51;5.10;;;3.30;;
78750;SDS011;68070;50.954;11.060;2023-04-06T17:04:35;4.20;;;3.30;;
78750;SDS011;68070;50.954;11.060;2023-04-06T17:07:20;5.90;;;3.00;;
78750;SDS011;68070;50.954;11.060;2023-04-06T17:10:08;5.00;;;3.50;;
78750;SDS011;68070;50.954;11.060;2023-04-06T17:12:53;4.90;;;3.10;;
78750;SDS011;68070;50.954;11.060;2023-04-06T17:15:37;5.00;;;3.40;;
78750;SDS011;68070;50.954;11.060;2023-04-06T17:18:21;4.90;;;3.20;;
78750;SDS011;68070;50.954;11.060;2023-04-06T17:21:06;3.60;;;2.80;;
78750;SDS011;68070;50.954;11.060;2023-04-06T17:23:51;5.60;;;4.20;;
78750;SDS011;68070;50.954;11.060;2023-04-06T17:26:36;5.60;;;4.10;;
78750;SDS011;68070;50.954;11.060;2023-04-06T17:29:20;5.70;;;3.50;;
78750;SDS011;68070;50.954;11.060;2023-04-06T17:32:04;5.00;;;3.40;;
78750;SDS011;68070;50.954;11.060;2023-04-06T17:34:48;4.40;;;3.10;;
78750;SDS011;68070;50.954;11.060;2023-04-06T17:37:33;5.60;;;3.00;;
78750;SDS011;68070;50.954;11.060;2023-04-06T17:40:17;5.50;;;3.10;;
78750;SDS011;68070;50.954;11.060;2023-04-06T17:43:02;5.60;;;3.10;;
78750;SDS011;68070;50.954;11.060;2023-04-06T17:45:48;5.60;;;2.40;;
78750;SDS011;68070;50.954;11.060;2023-04-06T17:48:35;3.70;;;2.40;;
78750;SDS011;68070;50.954;11.060;2023-04-06T17:51:19;3.30;;;2.60;;
78750;SDS011;68070;50.954;11.060;2023-04-06T17:54:04;6.30;;;3.40;;
78750;SDS011;68070;50.954;11.060;2023-04-06T17:56:48;4.70;;;3.00;;
78750;SDS011;68070;50.954;11.060;2023-04-06T17:59:34;5.00;;;3.60;;
78750;SDS011;68070;50.954;11.060;2023-04-06T18:02:19;4.50;;;2.90;;
78750;SDS011;68070;50.954;11.060;2023-04-06T18:05:04;5.40;;;3.50;;
78750;SDS011;68070;50.954;11.060;2023-04-06T18:07:49;4.60;;;2.90;;
78750;SDS011;68070;50.954;11.060;2023-04-06T18:10:36;5.20;;;3.00;;
78750;SDS011;68070;50.954;11.060;2023-04-06T18:13:22;6.90;;;3.30;;
78750;SDS011;68070;50.954;11.060;2023-04-06T18:16:06;7.10;;;3.50;;
78750;SDS011;68070;50.954;11.060;2023-04-06T18:18:50;4.30;;;3.40;;
78750;SDS011;68070;50.954;11.060;2023-04-06T18:21:35;7.00;;;3.70;;
78750;SDS011;68070;50.954;11.060;2023-04-06T18:24:19;6.00;;;3.70;;
78750;SDS011;68070;50.954;11.060;2023-04-06T18:27:04;6.60;;;4.30;;
78750;SDS011;68070;50.954;11.060;2023-04-06T18:29:48;6.00;;;4.60;;
78750;SDS011;68070;50.954;11.060;2023-04-06T18:32:33;6.50;;;3.90;;
78750;SDS011;68070;50.954;11.060;2023-04-06T18:35:17;4.40;;;3.50;;
78750;SDS011;68070;50.954;11.060;2023-04-06T18:38:01;8.30;;;4.50;;
78750;SDS011;68070;50.954;11.060;2023-04-06T18:40:46;6.30;;;3.90;;
78750;SDS011;68070;50.954;11.060;2023-04-06T18:43:30;7.40;;;4.10;;
78750;SDS011;68070;50.954;11.060;2023-04-06T18:46:15;5.50;;;4.00;;
78750;SDS011;68070;50.954;11.060;2023-04-06T18:49:02;7.90;;;3.80;;
78750;SDS011;68070;50.954;11.060;2023-04-06T18:51:47;7.20;;;4.40;;
78750;SDS011;68070;50.954;11.060;2023-04-06T18:54:31;6.30;;;4.00;;
78750;SDS011;68070;50.954;11.060;2023-04-06T18:57:16;7.20;;;4.40;;
78750;SDS011;68070;50.954;11.060;2023-04-06T19:00:02;8.80;;;4.70;;
78750;SDS011;68070;50.954;11.060;2023-04-06T19:02:49;8.90;;;4.50;;
78750;SDS011;68070;50.954;11.060;2023-04-06T19:05:34;26.10;;;11.60;;
78750;SDS011;68070;50.954;11.060;2023-04-06T19:08:19;9.10;;;4.50;;
78750;SDS011;68070;50.954;11.060;2023-04-06T19:11:04;28.00;;;13.10;;
78750;SDS011;68070;50.954;11.060;2023-04-06T19:13:51;43.30;;;14.30;;
78750;SDS011;68070;50.954;11.060;2023-04-06T19:16:36;13.60;;;5.90;;
78750;SDS011;68070;50.954;11.060;2023-04-06T19:19:24;7.70;;;3.70;;
78750;SDS011;68070;50.954;11.060;2023-04-06T19:22:08;22.60;;;9.30;;
78750;SDS011;68070;50.954;11.060;2023-04-06T19:24:53;17.40;;;7.10;;
78750;SDS011;68070;50.954;11.060;2023-04-06T19:27:38;8.40;;;4.00;;
78750;SDS011;68070;50.954;11.060;2023-04-06T19:30:23;24.10;;;8.90;;
78750;SDS011;68070;50.954;11.060;2023-04-06T19:33:07;22.70;;;8.80;;
78750;SDS011;68070;50.954;11.060;2023-04-06T19:35:52;5.90;;;3.40;;
78750;SDS011;68070;50.954;11.060;2023-04-06T19:38:36;8.50;;;4.60;;
78750;SDS011;68070;50.954;11.060;2023-04-06T19:41:21;7.60;;;4.40;;
78750;SDS011;68070;50.954;11.060;2023-04-06T19:44:06;13.60;;;6.80;;
78750;SDS011;68070;50.954;11.060;2023-04-06T19:46:51;15.00;;;7.00;;
78750;SDS011;68070;50.954;11.060;2023-04-06T19:49:36;14.50;;;7.00;;
78750;SDS011;68070;50.954;11.060;2023-04-06T19:52:20;14.20;;;7.40;;
78750;SDS011;68070;50.954;11.060;2023-04-06T19:55:05;6.90;;;4.60;;
78750;SDS011;68070;50.954;11.060;2023-04-06T19:57:50;8.20;;;4.40;;
78750;SDS011;68070;50.954;11.060;2023-04-06T20:00:35;8.20;;;5.00;;
78750;SDS011;68070;50.954;11.060;2023-04-06T20:03:19;7.60;;;4.70;;
78750;SDS011;68070;50.954;11.060;2023-04-06T20:06:03;6.70;;;4.90;;
78750;SDS011;68070;50.954;11.060;2023-04-06T20:08:48;14.60;;;7.00;;
78750;SDS011;68070;50.954;11.060;2023-04-06T20:11:35;17.50;;;8.30;;
78750;SDS011;68070;50.954;11.060;2023-04-06T20:14:19;9.00;;;5.10;;
78750;SDS011;68070;50.954;11.060;2023-04-06T20:17:05;9.50;;;6.10;;
78750;SDS011;68070;50.954;11.060;2023-04-06T20:19:49;7.60;;;5.10;;
78750;SDS011;68070;50.954;11.060;2023-04-06T20:22:35;8.60;;;5.30;;
78750;SDS011;68070;50.954;11.060;2023-04-06T20:25:20;8.50;;;4.70;;
78750;SDS011;68070;50.954;11.060;2023-04-06T20:28:05;5.90;;;4.00;;
78750;SDS011;68070;50.954;11.060;2023-04-06T20:30:51;8.40;;;4.60;;
78750;SDS011;68070;50.954;11.060;2023-04-06T20:33:38;3.90;;;2.70;;
78750;SDS011;68070;50.954;11.060;2023-04-06T20:36:22;6.60;;;3.80;;
78750;SDS011;68070;50.954;11.060;2023-04-06T20:39:07;7.00;;;4.70;;
78750;SDS011;68070;50.954;11.060;2023-04-06T20:41:51;10.00;;;5.80;;
78750;SDS011;68070;50.954;11.060;2023-04-06T20:44:36;9.10;;;5.50;;
78750;SDS011;68070;50.954;11.060;2023-04-06T20:47:20;8.90;;;5.20;;
78750;SDS011;68070;50.954;11.060;2023-04-06T20:50:05;124.70;;;61.10;;
78750;SDS011;68070;50.954;11.060;2023-04-06T20:52:50;336.90;;;155.00;;
78750;SDS011;68070;50.954;11.060;2023-04-06T20:58:23;241.10;;;124.40;;
78750;SDS011;68070;50.954;11.060;2023-04-06T21:01:10;12.20;;;7.50;;
78750;SDS011;68070;50.954;11.060;2023-04-06T21:03:56;96.30;;;27.40;;
78750;SDS011;68070;50.954;11.060;2023-04-06T21:06:40;116.80;;;42.50;;
78750;SDS011;68070;50.954;11.060;2023-04-06T21:09:24;50.30;;;22.40;;
78750;SDS011;68070;50.954;11.060;2023-04-06T21:12:11;25.20;;;10.70;;
78750;SDS011;68070;50.954;11.060;2023-04-06T21:14:55;9.00;;;5.70;;
78750;SDS011;68070;50.954;11.060;2023-04-06T21:17:40;11.00;;;6.40;;
78750;SDS011;68070;50.954;11.060;2023-04-06T21:20:24;6.70;;;4.70;;
78750;SDS011;68070;50.954;11.060;2023-04-06T21:23:09;8.70;;;6.00;;
78750;SDS011;68070;50.954;11.060;2023-04-06T21:25:54;11.40;;;6.60;;
78750;SDS011;68070;50.954;11.060;2023-04-06T21:28:39;8.90;;;5.80;;
78750;SDS011;68070;50.954;11.060;2023-04-06T21:31:24;14.20;;;7.20;;
78750;SDS011;68070;50.954;11.060;2023-04-06T21:34:12;22.40;;;10.50;;
78750;SDS011;68070;50.954;11.060;2023-04-06T21:36:57;48.50;;;23.00;;
78750;SDS011;68070;50.954;11.060;2023-04-06T21:39:42;44.60;;;20.00;;
78750;SDS011;68070;50.954;11.060;2023-04-06T21:42:26;61.80;;;24.50;;
78750;SDS011;68070;50.954;11.060;2023-04-06T21:45:11;36.70;;;14.50;;
78750;SDS011;68070;50.954;11.060;2023-04-06T21:47:55;33.30;;;13.90;;
78750;SDS011;68070;50.954;11.060;2023-04-06T21:50:40;25.20;;;10.60;;
78750;SDS011;68070;50.954;11.060;2023-04-06T21:53:24;97.00;;;28.30;;
78750;SDS011;68070;50.954;11.060;2023-04-06T21:56:09;41.70;;;16.30;;